Kezdőlap
METAR-TAF:

METAR-TAF

Repülőterek :

Brenner Field

Falls City, Nebraska, Amerikai Egyesült Államok

földrajzi szélesség: 40-04-44N, földrajzi hosszúság: 095-35-31W, magasság: 300 m

Jelenlegi meteorológiai megfigyelések

A jelentés 42 perccel ezelõtt készült, 16:53 UTC
Északi szél 14 kt
Hőmérséklet 9°C
Páratartalom 93%
Légköri nyomás 1019 hPa
Látótávolság: 16.1 km
Borult 1200 lábon

METAR: KFNB 181653Z AUTO 36014KT 10SM OVC012 09/08 A3010 RMK AO2 PK WND 36026/1617 LTG DSNT E RAE39 SLP191 P0000 T00890083

Idő: 12:35 (17:35 UTC)


TAF: hiányzik

Meteorológiai megfigyelések és előrejelzések több, mint 4000 repülőtéren (METAR és TAF jelentéseket).

A térképen piros és sárga pontok jelzik az elérhető meteorológiai állomásokat.

Mozgassa az egeret a pont fölött, hogy megjelenjen az állomás neve.

Azután kattintson az időjárási megfigyelések és előrejelzések megtekintéséhez.

A térkép megváltoztatása: kattintson a fekete keresztel jelölt zöld gombra ráközelítéshez, a vonallal jelölt zöld gombra távolításhoz, vagy a zöld nyilakra a szomszédos térképek eléréséhez.


METAR-TAF: